Metar z pełnej godziny Komunikat METAR ze strony awiacja.imgw.pl Metar G00 EPPO METAR EPPO 261700Z 30008KT 9999 -SN OVC012 01/M01 Q1010 =